sensor_id;sensor_type;location;lat;lon;timestamp;temperature;humidity
19805;DHT22;10062;51.052;13.756;2023-08-31T00:02:07;16.60;1.00
19805;DHT22;10062;51.052;13.756;2023-08-31T00:04:40;16.70;1.00
19805;DHT22;10062;51.052;13.756;2023-08-31T00:07:11;16.70;1.00
19805;DHT22;10062;51.052;13.756;2023-08-31T00:09:43;16.80;1.00
19805;DHT22;10062;51.052;13.756;2023-08-31T00:12:15;16.80;1.00
19805;DHT22;10062;51.052;13.756;2023-08-31T00:14:49;16.70;1.00
19805;DHT22;10062;51.052;13.756;2023-08-31T00:17:21;16.80;1.00
19805;DHT22;10062;51.052;13.756;2023-08-31T00:19:53;16.80;1.00
19805;DHT22;10062;51.052;13.756;2023-08-31T00:22:25;16.60;1.00
19805;DHT22;10062;51.052;13.756;2023-08-31T00:24:56;16.70;1.00
19805;DHT22;10062;51.052;13.756;2023-08-31T00:27:28;16.60;1.00
19805;DHT22;10062;51.052;13.756;2023-08-31T00:30:01;16.50;1.00
19805;DHT22;10062;51.052;13.756;2023-08-31T00:32:34;16.50;1.00
19805;DHT22;10062;51.052;13.756;2023-08-31T00:35:06;16.40;1.00
19805;DHT22;10062;51.052;13.756;2023-08-31T00:37:38;16.40;1.00
19805;DHT22;10062;51.052;13.756;2023-08-31T00:40:11;16.50;1.00
19805;DHT22;10062;51.052;13.756;2023-08-31T00:42:44;16.50;99.90
19805;DHT22;10062;51.052;13.756;2023-08-31T00:45:18;16.50;99.90
19805;DHT22;10062;51.052;13.756;2023-08-31T00:47:51;16.50;1.00
19805;DHT22;10062;51.052;13.756;2023-08-31T00:50:23;16.50;1.00
19805;DHT22;10062;51.052;13.756;2023-08-31T00:52:55;16.60;42.90
19805;DHT22;10062;51.052;13.756;2023-08-31T00:55:27;16.50;1.00
19805;DHT22;10062;51.052;13.756;2023-08-31T00:57:59;16.50;1.00
19805;DHT22;10062;51.052;13.756;2023-08-31T01:00:42;16.50;1.00
19805;DHT22;10062;51.052;13.756;2023-08-31T01:03:19;16.40;1.00
19805;DHT22;10062;51.052;13.756;2023-08-31T01:06:01;16.40;99.90
19805;DHT22;10062;51.052;13.756;2023-08-31T01:08:39;16.40;1.00
19805;DHT22;10062;51.052;13.756;2023-08-31T01:11:19;16.30;1.00
19805;DHT22;10062;51.052;13.756;2023-08-31T01:13:57;16.20;99.90
19805;DHT22;10062;51.052;13.756;2023-08-31T01:16:35;16.20;1.00
19805;DHT22;10062;51.052;13.756;2023-08-31T01:19:17;16.20;1.00
19805;DHT22;10062;51.052;13.756;2023-08-31T01:21:55;16.20;1.00
19805;DHT22;10062;51.052;13.756;2023-08-31T01:24:31;16.10;1.00
19805;DHT22;10062;51.052;13.756;2023-08-31T01:27:04;16.20;99.90
19805;DHT22;10062;51.052;13.756;2023-08-31T01:29:36;16.00;1.00
19805;DHT22;10062;51.052;13.756;2023-08-31T01:32:08;16.10;1.00
19805;DHT22;10062;51.052;13.756;2023-08-31T01:34:42;16.10;99.90
19805;DHT22;10062;51.052;13.756;2023-08-31T01:37:17;16.10;1.00
19805;DHT22;10062;51.052;13.756;2023-08-31T01:39:56;16.20;1.00
19805;DHT22;10062;51.052;13.756;2023-08-31T01:42:31;16.20;1.00
19805;DHT22;10062;51.052;13.756;2023-08-31T01:45:05;16.10;1.00
19805;DHT22;10062;51.052;13.756;2023-08-31T01:47:37;16.00;1.00
19805;DHT22;10062;51.052;13.756;2023-08-31T01:50:10;16.00;99.90
19805;DHT22;10062;51.052;13.756;2023-08-31T01:52:42;16.00;1.00
19805;DHT22;10062;51.052;13.756;2023-08-31T01:55:16;16.20;99.90
19805;DHT22;10062;51.052;13.756;2023-08-31T01:57:48;16.20;99.90
19805;DHT22;10062;51.052;13.756;2023-08-31T02:00:26;16.20;1.00
19805;DHT22;10062;51.052;13.756;2023-08-31T02:03:00;16.80;99.90
19805;DHT22;10062;51.052;13.756;2023-08-31T02:05:32;16.20;1.00
19805;DHT22;10062;51.052;13.756;2023-08-31T02:08:04;16.20;99.90
19805;DHT22;10062;51.052;13.756;2023-08-31T02:10:37;16.30;1.00
19805;DHT22;10062;51.052;13.756;2023-08-31T02:13:09;16.30;99.90
19805;DHT22;10062;51.052;13.756;2023-08-31T02:15:40;16.30;1.00
19805;DHT22;10062;51.052;13.756;2023-08-31T02:18:12;16.30;99.90
19805;DHT22;10062;51.052;13.756;2023-08-31T02:20:44;16.20;1.00
19805;DHT22;10062;51.052;13.756;2023-08-31T02:23:16;16.30;1.00
19805;DHT22;10062;51.052;13.756;2023-08-31T02:25:49;16.40;99.90
19805;DHT22;10062;51.052;13.756;2023-08-31T02:28:20;16.40;1.00
19805;DHT22;10062;51.052;13.756;2023-08-31T02:30:58;16.20;99.90
19805;DHT22;10062;51.052;13.756;2023-08-31T02:33:30;16.20;1.00
19805;DHT22;10062;51.052;13.756;2023-08-31T02:36:02;16.10;99.90
19805;DHT22;10062;51.052;13.756;2023-08-31T02:38:33;16.20;1.00
19805;DHT22;10062;51.052;13.756;2023-08-31T02:41:06;16.20;1.00
19805;DHT22;10062;51.052;13.756;2023-08-31T02:43:38;16.20;1.00
19805;DHT22;10062;51.052;13.756;2023-08-31T02:46:10;16.10;1.00
19805;DHT22;10062;51.052;13.756;2023-08-31T02:48:43;16.10;1.00
19805;DHT22;10062;51.052;13.756;2023-08-31T02:51:15;16.10;1.00
19805;DHT22;10062;51.052;13.756;2023-08-31T02:53:47;16.00;1.00
19805;DHT22;10062;51.052;13.756;2023-08-31T02:56:20;16.40;1.00
19805;DHT22;10062;51.052;13.756;2023-08-31T02:58:52;16.00;1.00
19805;DHT22;10062;51.052;13.756;2023-08-31T03:01:24;16.10;13.40
19805;DHT22;10062;51.052;13.756;2023-08-31T03:03:56;16.20;1.00
19805;DHT22;10062;51.052;13.756;2023-08-31T03:06:28;16.20;93.10
19805;DHT22;10062;51.052;13.756;2023-08-31T03:09:00;16.20;63.90
19805;DHT22;10062;51.052;13.756;2023-08-31T03:11:34;16.10;99.90
19805;DHT22;10062;51.052;13.756;2023-08-31T03:14:05;16.10;99.90
19805;DHT22;10062;51.052;13.756;2023-08-31T03:16:37;16.20;99.90
19805;DHT22;10062;51.052;13.756;2023-08-31T03:19:09;16.10;99.90
19805;DHT22;10062;51.052;13.756;2023-08-31T03:21:41;16.10;99.90
19805;DHT22;10062;51.052;13.756;2023-08-31T03:24:12;16.10;1.00
19805;DHT22;10062;51.052;13.756;2023-08-31T03:26:45;16.00;99.90
19805;DHT22;10062;51.052;13.756;2023-08-31T03:29:17;15.90;99.90
19805;DHT22;10062;51.052;13.756;2023-08-31T03:31:49;15.90;99.90
19805;DHT22;10062;51.052;13.756;2023-08-31T03:34:21;15.90;99.90
19805;DHT22;10062;51.052;13.756;2023-08-31T03:36:53;15.80;1.00
19805;DHT22;10062;51.052;13.756;2023-08-31T03:39:25;15.80;1.00
19805;DHT22;10062;51.052;13.756;2023-08-31T03:41:59;16.00;1.00
19805;DHT22;10062;51.052;13.756;2023-08-31T03:44:30;15.70;1.00
19805;DHT22;10062;51.052;13.756;2023-08-31T03:47:02;15.70;71.00
19805;DHT22;10062;51.052;13.756;2023-08-31T03:49:34;15.70;93.60
19805;DHT22;10062;51.052;13.756;2023-08-31T03:52:06;15.70;20.10
19805;DHT22;10062;51.052;13.756;2023-08-31T03:54:38;15.70;99.90
19805;DHT22;10062;51.052;13.756;2023-08-31T03:57:11;15.80;99.90
19805;DHT22;10062;51.052;13.756;2023-08-31T03:59:43;15.80;99.90
19805;DHT22;10062;51.052;13.756;2023-08-31T04:02:15;15.90;1.00
19805;DHT22;10062;51.052;13.756;2023-08-31T04:04:47;15.70;99.90
19805;DHT22;10062;51.052;13.756;2023-08-31T04:07:19;15.60;1.00
19805;DHT22;10062;51.052;13.756;2023-08-31T04:09:50;15.60;99.90
19805;DHT22;10062;51.052;13.756;2023-08-31T04:12:24;15.60;1.00
19805;DHT22;10062;51.052;13.756;2023-08-31T04:14:56;15.60;99.90
19805;DHT22;10062;51.052;13.756;2023-08-31T04:17:28;15.40;99.90
19805;DHT22;10062;51.052;13.756;2023-08-31T04:20:00;15.30;41.40
19805;DHT22;10062;51.052;13.756;2023-08-31T04:22:32;15.30;99.90
19805;DHT22;10062;51.052;13.756;2023-08-31T04:25:04;15.60;99.90
19805;DHT22;10062;51.052;13.756;2023-08-31T04:27:37;15.60;99.90
19805;DHT22;10062;51.052;13.756;2023-08-31T04:30:11;15.60;99.90
19805;DHT22;10062;51.052;13.756;2023-08-31T04:32:42;13.70;1.00
19805;DHT22;10062;51.052;13.756;2023-08-31T04:35:15;15.60;99.90
19805;DHT22;10062;51.052;13.756;2023-08-31T04:37:46;15.60;6.20
19805;DHT22;10062;51.052;13.756;2023-08-31T04:40:18;15.60;99.90
19805;DHT22;10062;51.052;13.756;2023-08-31T04:42:51;15.60;99.90
19805;DHT22;10062;51.052;13.756;2023-08-31T04:45:24;15.80;99.90
19805;DHT22;10062;51.052;13.756;2023-08-31T04:47:56;15.50;99.90
19805;DHT22;10062;51.052;13.756;2023-08-31T04:50:29;15.50;1.00
19805;DHT22;10062;51.052;13.756;2023-08-31T04:53:00;15.40;99.90
19805;DHT22;10062;51.052;13.756;2023-08-31T04:55:32;15.60;43.10
19805;DHT22;10062;51.052;13.756;2023-08-31T04:58:05;15.60;73.20
19805;DHT22;10062;51.052;13.756;2023-08-31T05:00:37;15.60;1.00
19805;DHT22;10062;51.052;13.756;2023-08-31T05:03:10;15.60;40.90
19805;DHT22;10062;51.052;13.756;2023-08-31T05:05:41;15.70;99.90
19805;DHT22;10062;51.052;13.756;2023-08-31T05:08:14;15.70;83.20
19805;DHT22;10062;51.052;13.756;2023-08-31T05:10:46;15.70;1.00
19805;DHT22;10062;51.052;13.756;2023-08-31T05:13:19;15.60;1.00
19805;DHT22;10062;51.052;13.756;2023-08-31T05:15:50;15.40;1.00
19805;DHT22;10062;51.052;13.756;2023-08-31T05:18:22;15.40;99.90
19805;DHT22;10062;51.052;13.756;2023-08-31T05:20:54;15.50;1.00
19805;DHT22;10062;51.052;13.756;2023-08-31T05:23:26;15.50;1.00
19805;DHT22;10062;51.052;13.756;2023-08-31T05:25:58;15.30;41.00
19805;DHT22;10062;51.052;13.756;2023-08-31T05:28:33;15.40;99.90
19805;DHT22;10062;51.052;13.756;2023-08-31T05:33:37;15.40;99.90
19805;DHT22;10062;51.052;13.756;2023-08-31T05:36:08;16.10;58.40
19805;DHT22;10062;51.052;13.756;2023-08-31T05:38:40;15.60;99.90
19805;DHT22;10062;51.052;13.756;2023-08-31T05:43:46;15.60;1.00
19805;DHT22;10062;51.052;13.756;2023-08-31T05:46:17;15.70;99.90
19805;DHT22;10062;51.052;13.756;2023-08-31T05:48:49;16.50;1.00
19805;DHT22;10062;51.052;13.756;2023-08-31T05:51:23;15.60;1.00
19805;DHT22;10062;51.052;13.756;2023-08-31T05:53:54;15.80;1.00
19805;DHT22;10062;51.052;13.756;2023-08-31T05:56:26;15.70;1.00
19805;DHT22;10062;51.052;13.756;2023-08-31T05:58:59;15.90;1.00
19805;DHT22;10062;51.052;13.756;2023-08-31T06:01:32;16.00;1.00
19805;DHT22;10062;51.052;13.756;2023-08-31T06:04:04;16.00;1.00
19805;DHT22;10062;51.052;13.756;2023-08-31T06:06:36;16.10;99.90
19805;DHT22;10062;51.052;13.756;2023-08-31T06:09:08;16.20;99.90
19805;DHT22;10062;51.052;13.756;2023-08-31T06:11:41;17.20;1.00
19805;DHT22;10062;51.052;13.756;2023-08-31T06:14:14;16.30;99.90
19805;DHT22;10062;51.052;13.756;2023-08-31T06:16:46;16.60;1.00
19805;DHT22;10062;51.052;13.756;2023-08-31T06:19:18;16.40;99.90
19805;DHT22;10062;51.052;13.756;2023-08-31T06:21:49;16.50;1.00
19805;DHT22;10062;51.052;13.756;2023-08-31T06:24:21;16.60;1.00
19805;DHT22;10062;51.052;13.756;2023-08-31T06:26:53;16.60;94.90
19805;DHT22;10062;51.052;13.756;2023-08-31T06:29:26;16.70;99.90
19805;DHT22;10062;51.052;13.756;2023-08-31T06:31:58;16.80;1.00
19805;DHT22;10062;51.052;13.756;2023-08-31T06:34:30;16.90;99.90
19805;DHT22;10062;51.052;13.756;2023-08-31T06:37:03;17.00;1.00
19805;DHT22;10062;51.052;13.756;2023-08-31T06:39:35;17.10;99.90
19805;DHT22;10062;51.052;13.756;2023-08-31T06:42:07;17.40;99.90
19805;DHT22;10062;51.052;13.756;2023-08-31T06:44:43;17.60;99.90
19805;DHT22;10062;51.052;13.756;2023-08-31T06:47:15;17.70;1.00
19805;DHT22;10062;51.052;13.756;2023-08-31T06:49:48;17.50;1.00
19805;DHT22;10062;51.052;13.756;2023-08-31T06:52:20;17.20;54.40
19805;DHT22;10062;51.052;13.756;2023-08-31T06:54:51;17.40;1.00
19805;DHT22;10062;51.052;13.756;2023-08-31T06:57:27;17.10;1.00
19805;DHT22;10062;51.052;13.756;2023-08-31T07:00:00;17.10;1.00
19805;DHT22;10062;51.052;13.756;2023-08-31T07:02:34;17.20;1.00
19805;DHT22;10062;51.052;13.756;2023-08-31T07:05:06;17.50;99.90
19805;DHT22;10062;51.052;13.756;2023-08-31T07:07:38;17.70;1.00
19805;DHT22;10062;51.052;13.756;2023-08-31T07:10:10;17.70;1.00
19805;DHT22;10062;51.052;13.756;2023-08-31T07:12:42;18.40;1.00
19805;DHT22;10062;51.052;13.756;2023-08-31T07:15:15;18.10;3.00
19805;DHT22;10062;51.052;13.756;2023-08-31T07:17:47;18.40;1.00
19805;DHT22;10062;51.052;13.756;2023-08-31T07:20:19;18.90;99.90
19805;DHT22;10062;51.052;13.756;2023-08-31T07:22:51;19.20;99.90
19805;DHT22;10062;51.052;13.756;2023-08-31T07:25:23;19.20;99.90
19805;DHT22;10062;51.052;13.756;2023-08-31T07:27:54;19.10;1.00
19805;DHT22;10062;51.052;13.756;2023-08-31T07:30:27;19.10;1.00
19805;DHT22;10062;51.052;13.756;2023-08-31T07:33:00;19.10;1.00
19805;DHT22;10062;51.052;13.756;2023-08-31T07:35:34;19.00;1.00
19805;DHT22;10062;51.052;13.756;2023-08-31T07:38:05;18.90;99.90
19805;DHT22;10062;51.052;13.756;2023-08-31T07:40:37;18.90;99.90
19805;DHT22;10062;51.052;13.756;2023-08-31T07:43:09;19.30;1.00
19805;DHT22;10062;51.052;13.756;2023-08-31T07:45:42;19.70;1.00
19805;DHT22;10062;51.052;13.756;2023-08-31T07:48:13;21.10;1.00
19805;DHT22;10062;51.052;13.756;2023-08-31T07:50:45;22.70;37.30
19805;DHT22;10062;51.052;13.756;2023-08-31T07:53:19;22.90;1.00
19805;DHT22;10062;51.052;13.756;2023-08-31T07:55:51;22.90;1.00
19805;DHT22;10062;51.052;13.756;2023-08-31T07:58:24;23.40;99.90
19805;DHT22;10062;51.052;13.756;2023-08-31T08:00:58;24.50;99.90
19805;DHT22;10062;51.052;13.756;2023-08-31T08:03:30;25.10;99.90
19805;DHT22;10062;51.052;13.756;2023-08-31T08:06:01;25.00;99.90
19805;DHT22;10062;51.052;13.756;2023-08-31T08:08:33;25.70;70.80
19805;DHT22;10062;51.052;13.756;2023-08-31T08:11:05;26.30;3.10
19805;DHT22;10062;51.052;13.756;2023-08-31T08:13:37;27.70;1.00
19805;DHT22;10062;51.052;13.756;2023-08-31T08:16:10;29.20;1.00
19805;DHT22;10062;51.052;13.756;2023-08-31T08:18:42;29.50;1.00
19805;DHT22;10062;51.052;13.756;2023-08-31T08:21:13;30.80;1.00
19805;DHT22;10062;51.052;13.756;2023-08-31T08:23:45;31.80;1.00
19805;DHT22;10062;51.052;13.756;2023-08-31T08:26:17;32.20;1.00
19805;DHT22;10062;51.052;13.756;2023-08-31T08:28:49;31.20;1.00
19805;DHT22;10062;51.052;13.756;2023-08-31T08:31:22;31.90;1.00
19805;DHT22;10062;51.052;13.756;2023-08-31T08:33:53;32.70;1.00
19805;DHT22;10062;51.052;13.756;2023-08-31T08:36:25;32.50;1.00
19805;DHT22;10062;51.052;13.756;2023-08-31T08:38:57;30.20;1.00
19805;DHT22;10062;51.052;13.756;2023-08-31T08:41:29;28.40;1.00
19805;DHT22;10062;51.052;13.756;2023-08-31T08:44:02;26.80;1.00
19805;DHT22;10062;51.052;13.756;2023-08-31T08:46:36;27.00;1.00
19805;DHT22;10062;51.052;13.756;2023-08-31T08:49:08;29.10;1.00
19805;DHT22;10062;51.052;13.756;2023-08-31T08:51:41;31.30;1.00
19805;DHT22;10062;51.052;13.756;2023-08-31T08:54:13;32.10;1.00
19805;DHT22;10062;51.052;13.756;2023-08-31T08:56:45;31.10;1.00
19805;DHT22;10062;51.052;13.756;2023-08-31T08:59:16;29.90;1.00
19805;DHT22;10062;51.052;13.756;2023-08-31T09:01:50;28.60;1.00
19805;DHT22;10062;51.052;13.756;2023-08-31T09:04:22;27.10;1.00
19805;DHT22;10062;51.052;13.756;2023-08-31T09:06:54;24.90;1.00
19805;DHT22;10062;51.052;13.756;2023-08-31T09:09:25;25.60;1.00
19805;DHT22;10062;51.052;13.756;2023-08-31T09:12:06;27.80;1.00
19805;DHT22;10062;51.052;13.756;2023-08-31T09:14:38;29.60;1.00
19805;DHT22;10062;51.052;13.756;2023-08-31T09:17:11;30.30;1.00
19805;DHT22;10062;51.052;13.756;2023-08-31T09:19:42;31.40;1.00
19805;DHT22;10062;51.052;13.756;2023-08-31T09:22:14;32.50;1.00
19805;DHT22;10062;51.052;13.756;2023-08-31T09:24:49;33.10;1.00
19805;DHT22;10062;51.052;13.756;2023-08-31T09:27:21;33.70;1.00
19805;DHT22;10062;51.052;13.756;2023-08-31T09:29:54;32.50;1.00
19805;DHT22;10062;51.052;13.756;2023-08-31T09:32:28;30.90;1.00
19805;DHT22;10062;51.052;13.756;2023-08-31T09:35:00;26.90;1.00
19805;DHT22;10062;51.052;13.756;2023-08-31T09:37:34;25.10;1.00
19805;DHT22;10062;51.052;13.756;2023-08-31T09:40:07;23.80;1.00
19805;DHT22;10062;51.052;13.756;2023-08-31T09:42:38;23.70;1.00
19805;DHT22;10062;51.052;13.756;2023-08-31T09:45:10;26.10;1.00
19805;DHT22;10062;51.052;13.756;2023-08-31T09:47:44;26.80;1.00
19805;DHT22;10062;51.052;13.756;2023-08-31T09:50:16;25.90;1.00
19805;DHT22;10062;51.052;13.756;2023-08-31T09:52:50;25.50;1.00
19805;DHT22;10062;51.052;13.756;2023-08-31T09:55:27;25.00;1.00
19805;DHT22;10062;51.052;13.756;2023-08-31T09:58:00;24.40;1.00
19805;DHT22;10062;51.052;13.756;2023-08-31T10:00:35;23.70;1.00
19805;DHT22;10062;51.052;13.756;2023-08-31T10:03:08;22.70;1.00
19805;DHT22;10062;51.052;13.756;2023-08-31T10:05:45;22.10;1.00
19805;DHT22;10062;51.052;13.756;2023-08-31T10:08:18;21.80;1.00
19805;DHT22;10062;51.052;13.756;2023-08-31T10:10:49;22.00;1.00
19805;DHT22;10062;51.052;13.756;2023-08-31T10:13:21;22.90;1.00
19805;DHT22;10062;51.052;13.756;2023-08-31T10:15:54;23.90;1.00
19805;DHT22;10062;51.052;13.756;2023-08-31T10:18:28;24.80;1.00
19805;DHT22;10062;51.052;13.756;2023-08-31T10:21:01;26.10;1.00
19805;DHT22;10062;51.052;13.756;2023-08-31T10:23:33;29.10;1.00
19805;DHT22;10062;51.052;13.756;2023-08-31T10:26:06;33.10;1.00
19805;DHT22;10062;51.052;13.756;2023-08-31T10:28:42;31.60;1.00
19805;DHT22;10062;51.052;13.756;2023-08-31T10:31:16;29.20;1.00
19805;DHT22;10062;51.052;13.756;2023-08-31T10:33:55;28.20;1.00
19805;DHT22;10062;51.052;13.756;2023-08-31T10:36:37;25.80;1.00
19805;DHT22;10062;51.052;13.756;2023-08-31T10:39:13;24.20;1.00
19805;DHT22;10062;51.052;13.756;2023-08-31T10:44:34;24.10;1.00
19805;DHT22;10062;51.052;13.756;2023-08-31T10:47:06;25.00;1.00
19805;DHT22;10062;51.052;13.756;2023-08-31T10:49:50;24.20;1.00
19805;DHT22;10062;51.052;13.756;2023-08-31T10:52:22;23.40;1.00
19805;DHT22;10062;51.052;13.756;2023-08-31T10:54:55;23.20;1.00
19805;DHT22;10062;51.052;13.756;2023-08-31T10:57:30;24.50;1.00
19805;DHT22;10062;51.052;13.756;2023-08-31T11:00:02;26.50;1.00
19805;DHT22;10062;51.052;13.756;2023-08-31T11:02:35;29.00;1.00
19805;DHT22;10062;51.052;13.756;2023-08-31T11:05:10;31.20;1.00
19805;DHT22;10062;51.052;13.756;2023-08-31T11:07:43;31.90;1.00
19805;DHT22;10062;51.052;13.756;2023-08-31T11:10:16;29.30;1.00
19805;DHT22;10062;51.052;13.756;2023-08-31T11:12:50;27.70;1.00
19805;DHT22;10062;51.052;13.756;2023-08-31T11:15:24;26.30;1.00
19805;DHT22;10062;51.052;13.756;2023-08-31T11:17:56;24.90;1.00
19805;DHT22;10062;51.052;13.756;2023-08-31T11:20:30;23.40;1.00
19805;DHT22;10062;51.052;13.756;2023-08-31T11:23:03;22.50;1.00
19805;DHT22;10062;51.052;13.756;2023-08-31T11:25:35;21.80;1.00
19805;DHT22;10062;51.052;13.756;2023-08-31T11:28:07;21.10;1.00
19805;DHT22;10062;51.052;13.756;2023-08-31T11:30:39;20.80;1.00
19805;DHT22;10062;51.052;13.756;2023-08-31T11:33:10;20.20;1.00
19805;DHT22;10062;51.052;13.756;2023-08-31T11:35:46;19.80;99.90
19805;DHT22;10062;51.052;13.756;2023-08-31T11:38:18;19.40;1.00
19805;DHT22;10062;51.052;13.756;2023-08-31T11:40:51;19.90;1.00
19805;DHT22;10062;51.052;13.756;2023-08-31T11:43:27;19.70;1.00
19805;DHT22;10062;51.052;13.756;2023-08-31T11:45:59;19.30;1.00
19805;DHT22;10062;51.052;13.756;2023-08-31T11:48:31;19.40;47.00
19805;DHT22;10062;51.052;13.756;2023-08-31T11:51:05;19.30;1.00
19805;DHT22;10062;51.052;13.756;2023-08-31T11:53:37;19.40;1.00
19805;DHT22;10062;51.052;13.756;2023-08-31T11:56:09;19.40;99.90
19805;DHT22;10062;51.052;13.756;2023-08-31T11:58:41;19.50;1.00
19805;DHT22;10062;51.052;13.756;2023-08-31T12:01:18;19.40;1.00
19805;DHT22;10062;51.052;13.756;2023-08-31T12:03:51;19.40;1.00
19805;DHT22;10062;51.052;13.756;2023-08-31T12:06:24;19.60;99.90
19805;DHT22;10062;51.052;13.756;2023-08-31T12:08:56;19.60;99.90
19805;DHT22;10062;51.052;13.756;2023-08-31T12:11:28;20.10;99.90
19805;DHT22;10062;51.052;13.756;2023-08-31T12:14:00;20.60;99.90
19805;DHT22;10062;51.052;13.756;2023-08-31T12:16:33;21.10;1.00
19805;DHT22;10062;51.052;13.756;2023-08-31T12:19:05;21.80;1.00
19805;DHT22;10062;51.052;13.756;2023-08-31T12:21:39;22.10;1.00
19805;DHT22;10062;51.052;13.756;2023-08-31T12:24:10;22.30;99.90
19805;DHT22;10062;51.052;13.756;2023-08-31T12:26:42;22.50;99.90
19805;DHT22;10062;51.052;13.756;2023-08-31T12:29:14;22.70;99.90
19805;DHT22;10062;51.052;13.756;2023-08-31T12:31:46;22.40;99.90
19805;DHT22;10062;51.052;13.756;2023-08-31T12:34:18;22.00;99.90
19805;DHT22;10062;51.052;13.756;2023-08-31T12:36:51;22.40;99.90
19805;DHT22;10062;51.052;13.756;2023-08-31T12:39:23;22.70;99.90
19805;DHT22;10062;51.052;13.756;2023-08-31T12:41:54;23.10;99.90
19805;DHT22;10062;51.052;13.756;2023-08-31T12:44:27;23.40;99.90
19805;DHT22;10062;51.052;13.756;2023-08-31T12:46:58;23.80;99.90
19805;DHT22;10062;51.052;13.756;2023-08-31T12:49:30;24.00;1.00
19805;DHT22;10062;51.052;13.756;2023-08-31T12:52:04;24.00;1.00
19805;DHT22;10062;51.052;13.756;2023-08-31T12:54:36;24.10;1.00
19805;DHT22;10062;51.052;13.756;2023-08-31T12:57:08;24.00;1.00
19805;DHT22;10062;51.052;13.756;2023-08-31T12:59:39;23.60;1.00
19805;DHT22;10062;51.052;13.756;2023-08-31T13:02:12;23.30;1.00
19805;DHT22;10062;51.052;13.756;2023-08-31T13:04:44;22.80;1.00
19805;DHT22;10062;51.052;13.756;2023-08-31T13:07:17;22.40;1.00
19805;DHT22;10062;51.052;13.756;2023-08-31T13:09:49;22.20;1.00
19805;DHT22;10062;51.052;13.756;2023-08-31T13:12:21;21.50;1.00
19805;DHT22;10062;51.052;13.756;2023-08-31T13:14:52;21.70;2.40
19805;DHT22;10062;51.052;13.756;2023-08-31T13:17:24;21.80;11.50
19805;DHT22;10062;51.052;13.756;2023-08-31T13:19:57;22.00;95.10
19805;DHT22;10062;51.052;13.756;2023-08-31T13:22:30;22.40;99.90
19805;DHT22;10062;51.052;13.756;2023-08-31T13:25:02;22.90;41.80
19805;DHT22;10062;51.052;13.756;2023-08-31T13:27:35;23.40;99.90
19805;DHT22;10062;51.052;13.756;2023-08-31T13:30:08;24.00;29.90
19805;DHT22;10062;51.052;13.756;2023-08-31T13:32:40;24.50;1.00
19805;DHT22;10062;51.052;13.756;2023-08-31T13:35:12;24.90;1.00
19805;DHT22;10062;51.052;13.756;2023-08-31T13:37:45;25.40;1.00
19805;DHT22;10062;51.052;13.756;2023-08-31T13:40:17;25.70;1.00
19805;DHT22;10062;51.052;13.756;2023-08-31T13:42:53;25.60;1.00
19805;DHT22;10062;51.052;13.756;2023-08-31T13:45:26;25.70;1.00
19805;DHT22;10062;51.052;13.756;2023-08-31T13:47:57;25.90;1.00
19805;DHT22;10062;51.052;13.756;2023-08-31T13:50:30;25.80;1.00
19805;DHT22;10062;51.052;13.756;2023-08-31T13:53:04;25.60;1.00
19805;DHT22;10062;51.052;13.756;2023-08-31T13:55:35;25.70;1.00
19805;DHT22;10062;51.052;13.756;2023-08-31T13:58:08;25.80;1.00
19805;DHT22;10062;51.052;13.756;2023-08-31T14:00:40;25.60;1.00
19805;DHT22;10062;51.052;13.756;2023-08-31T14:03:12;25.50;1.00
19805;DHT22;10062;51.052;13.756;2023-08-31T14:05:47;25.20;1.00
19805;DHT22;10062;51.052;13.756;2023-08-31T14:08:20;22.50;1.00
19805;DHT22;10062;51.052;13.756;2023-08-31T14:10:53;24.80;1.00
19805;DHT22;10062;51.052;13.756;2023-08-31T14:13:25;24.60;1.00
19805;DHT22;10062;51.052;13.756;2023-08-31T14:15:56;24.50;1.00
19805;DHT22;10062;51.052;13.756;2023-08-31T14:18:29;24.30;1.00
19805;DHT22;10062;51.052;13.756;2023-08-31T14:21:02;24.10;1.00
19805;DHT22;10062;51.052;13.756;2023-08-31T14:23:35;24.00;1.00
19805;DHT22;10062;51.052;13.756;2023-08-31T14:26:07;23.80;1.00
19805;DHT22;10062;51.052;13.756;2023-08-31T14:28:41;23.30;1.00
19805;DHT22;10062;51.052;13.756;2023-08-31T14:31:14;23.00;1.00
19805;DHT22;10062;51.052;13.756;2023-08-31T14:33:46;22.80;1.00
19805;DHT22;10062;51.052;13.756;2023-08-31T14:36:18;22.80;1.00
19805;DHT22;10062;51.052;13.756;2023-08-31T14:38:51;22.80;1.00
19805;DHT22;10062;51.052;13.756;2023-08-31T14:41:23;22.60;1.00
19805;DHT22;10062;51.052;13.756;2023-08-31T14:43:54;22.40;1.00
19805;DHT22;10062;51.052;13.756;2023-08-31T14:46:26;22.30;1.00
19805;DHT22;10062;51.052;13.756;2023-08-31T14:48:58;22.40;1.00
19805;DHT22;10062;51.052;13.756;2023-08-31T14:51:30;22.50;1.00
19805;DHT22;10062;51.052;13.756;2023-08-31T14:54:12;22.60;1.00
19805;DHT22;10062;51.052;13.756;2023-08-31T14:56:43;22.90;1.00
19805;DHT22;10062;51.052;13.756;2023-08-31T14:59:15;22.60;1.00
19805;DHT22;10062;51.052;13.756;2023-08-31T15:01:47;22.50;1.00
19805;DHT22;10062;51.052;13.756;2023-08-31T15:04:19;22.50;1.00
19805;DHT22;10062;51.052;13.756;2023-08-31T15:06:53;22.30;1.00
19805;DHT22;10062;51.052;13.756;2023-08-31T15:09:26;22.20;1.00
19805;DHT22;10062;51.052;13.756;2023-08-31T15:11:58;22.20;1.00
19805;DHT22;10062;51.052;13.756;2023-08-31T15:14:29;21.90;1.00
19805;DHT22;10062;51.052;13.756;2023-08-31T15:17:01;21.80;1.00
19805;DHT22;10062;51.052;13.756;2023-08-31T15:19:33;21.70;1.00
19805;DHT22;10062;51.052;13.756;2023-08-31T15:22:05;21.50;1.00
19805;DHT22;10062;51.052;13.756;2023-08-31T15:24:38;21.50;1.00
19805;DHT22;10062;51.052;13.756;2023-08-31T15:27:13;21.60;1.00
19805;DHT22;10062;51.052;13.756;2023-08-31T15:29:44;21.60;1.00
19805;DHT22;10062;51.052;13.756;2023-08-31T15:32:16;21.50;1.00
19805;DHT22;10062;51.052;13.756;2023-08-31T15:34:48;21.40;1.00
19805;DHT22;10062;51.052;13.756;2023-08-31T15:37:20;21.30;1.00
19805;DHT22;10062;51.052;13.756;2023-08-31T15:39:53;21.20;1.00
19805;DHT22;10062;51.052;13.756;2023-08-31T15:42:25;21.10;1.00
19805;DHT22;10062;51.052;13.756;2023-08-31T15:44:58;20.90;1.00
19805;DHT22;10062;51.052;13.756;2023-08-31T15:47:30;20.70;1.00
19805;DHT22;10062;51.052;13.756;2023-08-31T15:50:01;20.70;1.00
19805;DHT22;10062;51.052;13.756;2023-08-31T15:52:33;20.60;99.90
19805;DHT22;10062;51.052;13.756;2023-08-31T15:55:07;20.60;1.00
19805;DHT22;10062;51.052;13.756;2023-08-31T15:57:39;20.40;1.00
19805;DHT22;10062;51.052;13.756;2023-08-31T16:00:11;19.50;1.00
19805;DHT22;10062;51.052;13.756;2023-08-31T16:02:43;19.40;1.00
19805;DHT22;10062;51.052;13.756;2023-08-31T16:05:15;19.30;1.00
19805;DHT22;10062;51.052;13.756;2023-08-31T16:07:46;19.00;99.90
19805;DHT22;10062;51.052;13.756;2023-08-31T16:10:19;19.10;99.90